sensor_id;sensor_type;location;lat;lon;timestamp;pressure;altitude;pressure_sealevel;temperature;humidity
23321;BME280;33376;51.306;4.752;2023-03-26T00:00:51;101208.66;;;8.38;100.00
23321;BME280;33376;51.306;4.752;2023-03-26T00:03:18;101205.13;;;8.39;100.00
23321;BME280;33376;51.306;4.752;2023-03-26T00:05:44;101198.97;;;8.38;100.00
23321;BME280;33376;51.306;4.752;2023-03-26T00:08:12;101205.78;;;8.44;100.00
23321;BME280;33376;51.306;4.752;2023-03-26T00:10:38;101193.94;;;8.32;100.00
23321;BME280;33376;51.306;4.752;2023-03-26T00:13:04;101192.47;;;8.02;100.00
23321;BME280;33376;51.306;4.752;2023-03-26T00:15:30;101189.13;;;7.97;100.00
23321;BME280;33376;51.306;4.752;2023-03-26T00:17:55;101189.19;;;7.96;100.00
23321;BME280;33376;51.306;4.752;2023-03-26T00:20:21;101191.59;;;8.25;100.00
23321;BME280;33376;51.306;4.752;2023-03-26T00:22:46;101182.44;;;8.33;100.00
23321;BME280;33376;51.306;4.752;2023-03-26T00:25:12;101175.38;;;8.34;100.00
23321;BME280;33376;51.306;4.752;2023-03-26T00:27:37;101171.06;;;8.31;100.00
23321;BME280;33376;51.306;4.752;2023-03-26T00:30:03;101164.53;;;8.18;100.00
23321;BME280;33376;51.306;4.752;2023-03-26T00:32:29;101157.91;;;8.30;100.00
23321;BME280;33376;51.306;4.752;2023-03-26T00:34:55;101149.78;;;7.91;100.00
23321;BME280;33376;51.306;4.752;2023-03-26T00:37:21;101156.44;;;7.78;100.00
23321;BME280;33376;51.306;4.752;2023-03-26T00:39:53;101147.66;;;7.78;100.00
23321;BME280;33376;51.306;4.752;2023-03-26T00:42:24;101140.84;;;7.72;100.00
23321;BME280;33376;51.306;4.752;2023-03-26T00:44:49;101132.13;;;7.70;100.00
23321;BME280;33376;51.306;4.752;2023-03-26T00:47:18;101124.06;;;7.73;100.00
23321;BME280;33376;51.306;4.752;2023-03-26T00:49:44;101129.34;;;7.73;100.00
23321;BME280;33376;51.306;4.752;2023-03-26T00:52:10;101121.50;;;7.72;100.00
23321;BME280;33376;51.306;4.752;2023-03-26T00:54:36;101117.81;;;7.76;100.00
23321;BME280;33376;51.306;4.752;2023-03-26T00:57:01;101106.22;;;7.80;100.00
23321;BME280;33376;51.306;4.752;2023-03-26T00:59:30;101100.44;;;7.92;100.00
23321;BME280;33376;51.306;4.752;2023-03-26T01:01:59;101094.75;;;8.02;100.00
23321;BME280;33376;51.306;4.752;2023-03-26T01:04:29;101088.91;;;8.16;100.00
23321;BME280;33376;51.306;4.752;2023-03-26T01:06:56;101070.06;;;8.03;100.00
23321;BME280;33376;51.306;4.752;2023-03-26T01:09:25;101071.28;;;8.16;100.00
23321;BME280;33376;51.306;4.752;2023-03-26T01:11:54;101071.88;;;8.24;100.00
23321;BME280;33376;51.306;4.752;2023-03-26T01:14:21;101064.63;;;8.29;100.00
23321;BME280;33376;51.306;4.752;2023-03-26T01:16:55;101062.56;;;8.56;100.00
23321;BME280;33376;51.306;4.752;2023-03-26T01:21:46;101054.59;;;8.57;100.00
23321;BME280;33376;51.306;4.752;2023-03-26T01:24:12;101053.41;;;8.64;100.00
23321;BME280;33376;51.306;4.752;2023-03-26T01:29:06;101032.97;;;8.68;100.00
23321;BME280;33376;51.306;4.752;2023-03-26T01:34:20;101035.34;;;8.54;100.00
23321;BME280;33376;51.306;4.752;2023-03-26T01:42:34;101009.75;;;8.74;100.00
23321;BME280;33376;51.306;4.752;2023-03-26T01:45:11;100999.09;;;8.96;100.00
23321;BME280;33376;51.306;4.752;2023-03-26T01:47:38;101006.88;;;8.80;100.00
23321;BME280;33376;51.306;4.752;2023-03-26T01:50:05;101005.19;;;8.78;100.00
23321;BME280;33376;51.306;4.752;2023-03-26T01:52:30;100990.09;;;8.61;100.00
23321;BME280;33376;51.306;4.752;2023-03-26T01:54:56;100987.94;;;8.89;100.00
23321;BME280;33376;51.306;4.752;2023-03-26T02:00:05;100982.66;;;9.08;100.00
23321;BME280;33376;51.306;4.752;2023-03-26T02:05:41;100968.91;;;8.81;100.00
23321;BME280;33376;51.306;4.752;2023-03-26T02:08:16;100971.41;;;8.66;100.00
23321;BME280;33376;51.306;4.752;2023-03-26T02:10:45;100949.66;;;8.59;100.00
23321;BME280;33376;51.306;4.752;2023-03-26T02:13:12;100943.88;;;8.70;100.00
23321;BME280;33376;51.306;4.752;2023-03-26T02:15:38;100934.03;;;8.55;100.00
23321;BME280;33376;51.306;4.752;2023-03-26T02:18:03;100909.09;;;8.60;100.00
23321;BME280;33376;51.306;4.752;2023-03-26T02:20:29;100888.44;;;8.68;100.00
23321;BME280;33376;51.306;4.752;2023-03-26T02:22:54;100872.00;;;8.62;100.00
23321;BME280;33376;51.306;4.752;2023-03-26T02:25:20;100849.09;;;8.62;100.00
23321;BME280;33376;51.306;4.752;2023-03-26T02:27:46;100822.22;;;8.71;100.00
23321;BME280;33376;51.306;4.752;2023-03-26T02:30:13;100792.25;;;8.72;100.00
23321;BME280;33376;51.306;4.752;2023-03-26T02:32:39;100776.56;;;8.68;100.00
23321;BME280;33376;51.306;4.752;2023-03-26T02:35:05;100762.53;;;8.67;100.00
23321;BME280;33376;51.306;4.752;2023-03-26T02:37:30;100741.69;;;8.61;100.00
23321;BME280;33376;51.306;4.752;2023-03-26T02:39:57;100725.03;;;8.59;100.00
23321;BME280;33376;51.306;4.752;2023-03-26T02:42:22;100706.31;;;8.64;100.00
23321;BME280;33376;51.306;4.752;2023-03-26T02:44:48;100687.75;;;8.65;100.00
23321;BME280;33376;51.306;4.752;2023-03-26T02:47:13;100660.38;;;8.66;100.00
23321;BME280;33376;51.306;4.752;2023-03-26T02:49:38;100646.47;;;8.80;100.00
23321;BME280;33376;51.306;4.752;2023-03-26T02:52:04;100632.72;;;9.08;100.00
23321;BME280;33376;51.306;4.752;2023-03-26T02:54:30;100647.50;;;8.95;100.00
23321;BME280;33376;51.306;4.752;2023-03-26T02:56:56;100640.25;;;8.98;100.00
23321;BME280;33376;51.306;4.752;2023-03-26T02:59:21;100630.63;;;8.80;100.00
23321;BME280;33376;51.306;4.752;2023-03-26T03:01:47;100614.91;;;8.77;100.00
23321;BME280;33376;51.306;4.752;2023-03-26T03:04:12;100605.25;;;8.76;100.00
23321;BME280;33376;51.306;4.752;2023-03-26T03:06:37;100594.91;;;8.71;100.00
23321;BME280;33376;51.306;4.752;2023-03-26T03:09:04;100562.25;;;8.89;100.00
23321;BME280;33376;51.306;4.752;2023-03-26T03:11:30;100554.38;;;8.72;100.00
23321;BME280;33376;51.306;4.752;2023-03-26T03:13:55;100538.56;;;8.88;100.00
23321;BME280;33376;51.306;4.752;2023-03-26T03:16:20;100520.47;;;8.63;100.00
23321;BME280;33376;51.306;4.752;2023-03-26T03:18:46;100510.13;;;8.59;100.00
23321;BME280;33376;51.306;4.752;2023-03-26T03:21:18;100488.47;;;8.69;100.00
23321;BME280;33376;51.306;4.752;2023-03-26T03:23:43;100474.31;;;8.86;100.00
23321;BME280;33376;51.306;4.752;2023-03-26T03:26:11;100456.34;;;8.93;100.00
23321;BME280;33376;51.306;4.752;2023-03-26T03:28:36;100450.94;;;8.78;100.00
23321;BME280;33376;51.306;4.752;2023-03-26T03:31:02;100446.16;;;8.69;100.00
23321;BME280;33376;51.306;4.752;2023-03-26T03:33:29;100430.50;;;8.82;100.00
23321;BME280;33376;51.306;4.752;2023-03-26T03:35:54;100412.75;;;8.84;100.00
23321;BME280;33376;51.306;4.752;2023-03-26T03:38:32;100406.97;;;8.93;100.00
23321;BME280;33376;51.306;4.752;2023-03-26T03:41:00;100397.66;;;8.86;100.00
23321;BME280;33376;51.306;4.752;2023-03-26T03:43:25;100400.47;;;8.99;100.00
23321;BME280;33376;51.306;4.752;2023-03-26T03:45:51;100381.06;;;9.00;100.00
23321;BME280;33376;51.306;4.752;2023-03-26T03:48:16;100394.59;;;9.25;100.00
23321;BME280;33376;51.306;4.752;2023-03-26T03:50:42;100381.81;;;9.17;100.00
23321;BME280;33376;51.306;4.752;2023-03-26T03:53:09;100369.53;;;9.32;100.00
23321;BME280;33376;51.306;4.752;2023-03-26T03:55:34;100367.50;;;8.90;100.00
23321;BME280;33376;51.306;4.752;2023-03-26T03:58:02;100354.56;;;8.53;100.00
23321;BME280;33376;51.306;4.752;2023-03-26T04:00:27;100335.81;;;8.42;100.00
23321;BME280;33376;51.306;4.752;2023-03-26T04:02:54;100335.63;;;8.45;100.00
23321;BME280;33376;51.306;4.752;2023-03-26T04:05:20;100312.56;;;8.48;100.00
23321;BME280;33376;51.306;4.752;2023-03-26T04:07:45;100310.75;;;8.49;100.00
23321;BME280;33376;51.306;4.752;2023-03-26T04:10:11;100312.22;;;8.54;100.00
23321;BME280;33376;51.306;4.752;2023-03-26T04:12:38;100311.09;;;8.58;100.00
23321;BME280;33376;51.306;4.752;2023-03-26T04:15:03;100308.88;;;8.66;100.00
23321;BME280;33376;51.306;4.752;2023-03-26T04:17:29;100298.06;;;8.86;100.00
23321;BME280;33376;51.306;4.752;2023-03-26T04:19:56;100302.69;;;8.67;100.00
23321;BME280;33376;51.306;4.752;2023-03-26T04:22:22;100292.38;;;8.78;100.00
23321;BME280;33376;51.306;4.752;2023-03-26T04:24:47;100277.28;;;8.80;100.00
23321;BME280;33376;51.306;4.752;2023-03-26T04:27:14;100284.31;;;8.49;100.00
23321;BME280;33376;51.306;4.752;2023-03-26T04:29:41;100276.53;;;8.63;100.00
23321;BME280;33376;51.306;4.752;2023-03-26T04:32:09;100268.50;;;8.64;100.00
23321;BME280;33376;51.306;4.752;2023-03-26T04:34:36;100266.97;;;8.60;100.00
23321;BME280;33376;51.306;4.752;2023-03-26T04:37:02;100270.00;;;8.84;100.00
23321;BME280;33376;51.306;4.752;2023-03-26T04:39:27;100269.16;;;8.83;100.00
23321;BME280;33376;51.306;4.752;2023-03-26T04:41:53;100267.78;;;8.92;100.00
23321;BME280;33376;51.306;4.752;2023-03-26T04:44:18;100251.69;;;8.81;100.00
23321;BME280;33376;51.306;4.752;2023-03-26T04:46:46;100243.16;;;8.76;100.00
23321;BME280;33376;51.306;4.752;2023-03-26T04:49:11;100236.78;;;8.64;100.00
23321;BME280;33376;51.306;4.752;2023-03-26T04:51:37;100227.50;;;8.57;100.00
23321;BME280;33376;51.306;4.752;2023-03-26T04:54:03;100217.00;;;8.56;100.00
23321;BME280;33376;51.306;4.752;2023-03-26T04:59:07;100219.47;;;8.74;100.00
23321;BME280;33376;51.306;4.752;2023-03-26T05:01:33;100222.03;;;8.60;100.00
23321;BME280;33376;51.306;4.752;2023-03-26T05:04:01;100216.84;;;8.43;100.00
23321;BME280;33376;51.306;4.752;2023-03-26T05:06:27;100212.75;;;8.38;100.00
23321;BME280;33376;51.306;4.752;2023-03-26T05:08:53;100208.84;;;8.29;100.00
23321;BME280;33376;51.306;4.752;2023-03-26T05:11:18;100199.19;;;8.28;100.00
23321;BME280;33376;51.306;4.752;2023-03-26T05:13:44;100196.47;;;8.30;100.00
23321;BME280;33376;51.306;4.752;2023-03-26T05:16:09;100188.63;;;8.28;100.00
23321;BME280;33376;51.306;4.752;2023-03-26T05:18:35;100186.88;;;8.29;100.00
23321;BME280;33376;51.306;4.752;2023-03-26T05:21:01;100195.47;;;8.32;100.00
23321;BME280;33376;51.306;4.752;2023-03-26T05:23:26;100185.50;;;8.37;100.00
23321;BME280;33376;51.306;4.752;2023-03-26T05:25:52;100173.66;;;8.29;100.00
23321;BME280;33376;51.306;4.752;2023-03-26T05:28:17;100172.78;;;8.28;100.00
23321;BME280;33376;51.306;4.752;2023-03-26T05:30:45;100170.00;;;8.47;100.00
23321;BME280;33376;51.306;4.752;2023-03-26T05:33:12;100167.44;;;8.45;100.00
23321;BME280;33376;51.306;4.752;2023-03-26T05:35:37;100152.16;;;8.19;100.00
23321;BME280;33376;51.306;4.752;2023-03-26T05:38:02;100154.03;;;8.17;100.00
23321;BME280;33376;51.306;4.752;2023-03-26T05:40:28;100153.19;;;8.17;100.00
23321;BME280;33376;51.306;4.752;2023-03-26T05:42:53;100155.84;;;8.17;100.00
23321;BME280;33376;51.306;4.752;2023-03-26T05:45:19;100147.06;;;8.16;100.00
23321;BME280;33376;51.306;4.752;2023-03-26T05:47:46;100149.59;;;8.18;100.00
23321;BME280;33376;51.306;4.752;2023-03-26T05:50:13;100151.75;;;8.11;100.00
23321;BME280;33376;51.306;4.752;2023-03-26T05:52:38;100144.16;;;8.05;100.00
23321;BME280;33376;51.306;4.752;2023-03-26T05:55:04;100142.44;;;8.04;100.00
23321;BME280;33376;51.306;4.752;2023-03-26T05:57:30;100135.66;;;8.00;100.00
23321;BME280;33376;51.306;4.752;2023-03-26T05:59:56;100141.78;;;8.01;100.00
23321;BME280;33376;51.306;4.752;2023-03-26T06:02:21;100135.72;;;7.99;100.00
23321;BME280;33376;51.306;4.752;2023-03-26T06:04:47;100102.38;;;7.98;100.00
23321;BME280;33376;51.306;4.752;2023-03-26T06:07:12;100094.19;;;8.02;100.00
23321;BME280;33376;51.306;4.752;2023-03-26T06:09:38;100100.47;;;8.00;100.00
23321;BME280;33376;51.306;4.752;2023-03-26T06:12:07;100092.47;;;8.01;100.00
23321;BME280;33376;51.306;4.752;2023-03-26T06:14:32;100074.94;;;8.00;100.00
23321;BME280;33376;51.306;4.752;2023-03-26T06:16:58;100081.81;;;8.03;100.00
23321;BME280;33376;51.306;4.752;2023-03-26T06:19:23;100080.81;;;8.05;100.00
23321;BME280;33376;51.306;4.752;2023-03-26T06:21:48;100061.97;;;8.11;100.00
23321;BME280;33376;51.306;4.752;2023-03-26T06:24:14;100048.34;;;8.03;100.00
23321;BME280;33376;51.306;4.752;2023-03-26T06:26:40;100037.03;;;8.01;100.00
23321;BME280;33376;51.306;4.752;2023-03-26T06:29:06;100033.66;;;7.99;100.00
23321;BME280;33376;51.306;4.752;2023-03-26T06:31:31;100024.59;;;8.03;100.00
23321;BME280;33376;51.306;4.752;2023-03-26T06:33:56;100010.31;;;8.07;100.00
23321;BME280;33376;51.306;4.752;2023-03-26T06:36:21;100011.13;;;8.08;100.00
23321;BME280;33376;51.306;4.752;2023-03-26T06:38:47;100009.53;;;8.05;100.00
23321;BME280;33376;51.306;4.752;2023-03-26T06:41:12;99995.56;;;8.03;100.00
23321;BME280;33376;51.306;4.752;2023-03-26T06:43:37;99991.25;;;8.02;100.00
23321;BME280;33376;51.306;4.752;2023-03-26T06:46:03;99978.97;;;8.01;100.00
23321;BME280;33376;51.306;4.752;2023-03-26T06:48:28;99975.31;;;8.04;100.00
23321;BME280;33376;51.306;4.752;2023-03-26T06:50:54;99961.94;;;8.07;100.00
23321;BME280;33376;51.306;4.752;2023-03-26T06:53:20;99959.09;;;8.10;100.00
23321;BME280;33376;51.306;4.752;2023-03-26T06:55:45;99945.06;;;8.09;100.00
23321;BME280;33376;51.306;4.752;2023-03-26T06:58:11;99931.13;;;8.07;100.00
23321;BME280;33376;51.306;4.752;2023-03-26T07:00:36;99919.59;;;8.08;100.00
23321;BME280;33376;51.306;4.752;2023-03-26T07:03:02;99919.78;;;8.35;100.00
23321;BME280;33376;51.306;4.752;2023-03-26T07:05:28;99922.59;;;8.46;100.00
23321;BME280;33376;51.306;4.752;2023-03-26T07:07:53;99923.56;;;8.45;100.00
23321;BME280;33376;51.306;4.752;2023-03-26T07:10:18;99909.50;;;8.58;100.00
23321;BME280;33376;51.306;4.752;2023-03-26T07:12:46;99906.50;;;8.21;100.00
23321;BME280;33376;51.306;4.752;2023-03-26T07:15:11;99895.84;;;8.22;100.00
23321;BME280;33376;51.306;4.752;2023-03-26T07:17:36;99883.56;;;8.23;100.00
23321;BME280;33376;51.306;4.752;2023-03-26T07:20:02;99892.97;;;8.27;100.00
23321;BME280;33376;51.306;4.752;2023-03-26T07:22:28;99878.94;;;8.26;100.00
23321;BME280;33376;51.306;4.752;2023-03-26T07:24:53;99871.50;;;8.33;100.00
23321;BME280;33376;51.306;4.752;2023-03-26T07:27:33;99863.88;;;8.42;100.00
23321;BME280;33376;51.306;4.752;2023-03-26T07:30:17;99866.03;;;8.50;100.00
23321;BME280;33376;51.306;4.752;2023-03-26T07:32:56;99870.44;;;8.63;100.00
23321;BME280;33376;51.306;4.752;2023-03-26T07:43:24;99865.06;;;8.79;100.00
23321;BME280;33376;51.306;4.752;2023-03-26T07:45:52;99863.19;;;8.67;100.00
23321;BME280;33376;51.306;4.752;2023-03-26T07:48:19;99857.69;;;8.70;100.00
23321;BME280;33376;51.306;4.752;2023-03-26T07:50:45;99853.94;;;8.74;100.00
23321;BME280;33376;51.306;4.752;2023-03-26T07:53:11;99858.56;;;8.70;100.00
23321;BME280;33376;51.306;4.752;2023-03-26T07:55:46;99855.81;;;8.72;100.00
23321;BME280;33376;51.306;4.752;2023-03-26T08:01:00;99849.94;;;8.81;100.00
23321;BME280;33376;51.306;4.752;2023-03-26T08:03:37;99843.06;;;8.78;100.00
23321;BME280;33376;51.306;4.752;2023-03-26T08:21:49;99594.63;;;8.39;100.00
23321;BME280;33376;51.306;4.752;2023-03-26T08:24:29;99583.28;;;8.51;100.00
23321;BME280;33376;51.306;4.752;2023-03-26T08:31:51;99576.31;;;8.50;100.00
23321;BME280;33376;51.306;4.752;2023-03-26T08:34:17;99566.16;;;8.57;100.00
23321;BME280;33376;51.306;4.752;2023-03-26T08:36:42;99549.81;;;8.52;100.00
23321;BME280;33376;51.306;4.752;2023-03-26T08:39:07;99547.06;;;8.53;100.00
23321;BME280;33376;51.306;4.752;2023-03-26T09:05:01;99496.34;;;9.11;100.00
23321;BME280;33376;51.306;4.752;2023-03-26T09:07:49;99486.25;;;9.29;100.00
23321;BME280;33376;51.306;4.752;2023-03-26T09:10:30;99491.97;;;9.23;100.00
23321;BME280;33376;51.306;4.752;2023-03-26T09:39:20;99550.91;;;9.25;100.00
23321;BME280;33376;51.306;4.752;2023-03-26T09:44:47;99564.34;;;9.22;100.00
23321;BME280;33376;51.306;4.752;2023-03-26T09:52:30;99580.63;;;9.28;100.00
23321;BME280;33376;51.306;4.752;2023-03-26T10:05:34;99758.56;;;10.19;100.00
23321;BME280;33376;51.306;4.752;2023-03-26T10:10:37;99836.66;;;10.14;100.00
23321;BME280;33376;51.306;4.752;2023-03-26T10:13:13;99863.78;;;10.17;100.00
23321;BME280;33376;51.306;4.752;2023-03-26T10:16:20;99893.34;;;10.24;100.00
23321;BME280;33376;51.306;4.752;2023-03-26T10:18:48;99945.81;;;9.92;100.00
23321;BME280;33376;51.306;4.752;2023-03-26T10:21:39;99969.63;;;10.19;100.00
23321;BME280;33376;51.306;4.752;2023-03-26T10:29:02;99988.03;;;10.08;100.00
23321;BME280;33376;51.306;4.752;2023-03-26T10:31:43;100003.81;;;10.09;100.00
23321;BME280;33376;51.306;4.752;2023-03-26T10:36:56;100039.63;;;10.15;100.00
23321;BME280;33376;51.306;4.752;2023-03-26T10:39:33;100052.66;;;10.18;100.00
23321;BME280;33376;51.306;4.752;2023-03-26T10:42:09;100053.28;;;10.09;100.00
23321;BME280;33376;51.306;4.752;2023-03-26T10:50:10;100095.91;;;9.78;100.00
23321;BME280;33376;51.306;4.752;2023-03-26T10:52:40;100092.06;;;9.96;100.00
23321;BME280;33376;51.306;4.752;2023-03-26T11:05:31;100119.44;;;9.40;100.00
23321;BME280;33376;51.306;4.752;2023-03-26T11:10:32;100119.25;;;9.43;100.00
23321;BME280;33376;51.306;4.752;2023-03-26T11:15:35;100128.63;;;9.49;100.00
23321;BME280;33376;51.306;4.752;2023-03-26T11:25:41;100141.28;;;9.86;100.00
23321;BME280;33376;51.306;4.752;2023-03-26T11:33:28;100146.50;;;10.28;100.00
23321;BME280;33376;51.306;4.752;2023-03-26T11:35:55;100163.81;;;10.05;100.00
23321;BME280;33376;51.306;4.752;2023-03-26T11:41:04;100192.59;;;9.97;100.00
23321;BME280;33376;51.306;4.752;2023-03-26T11:43:35;100192.72;;;10.10;100.00
23321;BME280;33376;51.306;4.752;2023-03-26T11:46:05;100198.63;;;10.42;100.00
23321;BME280;33376;51.306;4.752;2023-03-26T11:48:34;100210.19;;;10.26;100.00
23321;BME280;33376;51.306;4.752;2023-03-26T11:51:08;100214.25;;;10.32;100.00
23321;BME280;33376;51.306;4.752;2023-03-26T11:53:36;100226.78;;;10.16;100.00
23321;BME280;33376;51.306;4.752;2023-03-26T12:01:19;100258.44;;;10.31;100.00
23321;BME280;33376;51.306;4.752;2023-03-26T12:06:27;100272.91;;;10.26;100.00
23321;BME280;33376;51.306;4.752;2023-03-26T12:08:53;100279.94;;;10.27;100.00
23321;BME280;33376;51.306;4.752;2023-03-26T12:11:18;100283.31;;;10.57;100.00
23321;BME280;33376;51.306;4.752;2023-03-26T12:13:50;100285.41;;;10.38;100.00
23321;BME280;33376;51.306;4.752;2023-03-26T12:16:17;100290.88;;;10.49;100.00
23321;BME280;33376;51.306;4.752;2023-03-26T12:18:43;100301.16;;;10.68;100.00
23321;BME280;33376;51.306;4.752;2023-03-26T12:21:16;100312.09;;;10.21;100.00
23321;BME280;33376;51.306;4.752;2023-03-26T12:23:55;100312.47;;;10.43;100.00
23321;BME280;33376;51.306;4.752;2023-03-26T12:29:03;100333.41;;;10.33;100.00
23321;BME280;33376;51.306;4.752;2023-03-26T12:31:28;100339.06;;;10.42;100.00
23321;BME280;33376;51.306;4.752;2023-03-26T12:34:14;100345.59;;;10.36;100.00
23321;BME280;33376;51.306;4.752;2023-03-26T12:36:45;100354.00;;;10.14;100.00
23321;BME280;33376;51.306;4.752;2023-03-26T12:39:23;100349.28;;;10.33;100.00
23321;BME280;33376;51.306;4.752;2023-03-26T12:41:56;100347.38;;;10.64;100.00
23321;BME280;33376;51.306;4.752;2023-03-26T12:44:29;100345.78;;;10.47;100.00
23321;BME280;33376;51.306;4.752;2023-03-26T12:47:05;100347.13;;;10.40;100.00
23321;BME280;33376;51.306;4.752;2023-03-26T12:49:32;100343.59;;;10.54;100.00
23321;BME280;33376;51.306;4.752;2023-03-26T12:52:03;100343.72;;;10.38;100.00
23321;BME280;33376;51.306;4.752;2023-03-26T13:00:27;100341.94;;;10.93;100.00
23321;BME280;33376;51.306;4.752;2023-03-26T13:18:51;100373.94;;;10.90;100.00
23321;BME280;33376;51.306;4.752;2023-03-26T13:21:23;100382.72;;;10.64;100.00
23321;BME280;33376;51.306;4.752;2023-03-26T13:26:30;100385.91;;;10.55;100.00
23321;BME280;33376;51.306;4.752;2023-03-26T13:32:02;100396.88;;;10.77;100.00
23321;BME280;33376;51.306;4.752;2023-03-26T13:34:29;100397.56;;;10.67;100.00
23321;BME280;33376;51.306;4.752;2023-03-26T13:37:10;100402.38;;;10.60;100.00
23321;BME280;33376;51.306;4.752;2023-03-26T13:44:41;100408.06;;;10.82;100.00
23321;BME280;33376;51.306;4.752;2023-03-26T13:47:21;100407.00;;;10.71;100.00
23321;BME280;33376;51.306;4.752;2023-03-26T13:49:50;100415.63;;;10.74;100.00
23321;BME280;33376;51.306;4.752;2023-03-26T13:52:20;100413.75;;;10.76;100.00
23321;BME280;33376;51.306;4.752;2023-03-26T13:55:14;100415.75;;;10.59;100.00
23321;BME280;33376;51.306;4.752;2023-03-26T13:57:36;100418.69;;;10.68;100.00
23321;BME280;33376;51.306;4.752;2023-03-26T14:00:26;100419.50;;;10.97;100.00
23321;BME280;33376;51.306;4.752;2023-03-26T14:02:58;100419.72;;;10.80;100.00
23321;BME280;33376;51.306;4.752;2023-03-26T14:05:27;100419.81;;;10.92;100.00
23321;BME280;33376;51.306;4.752;2023-03-26T14:08:29;100415.09;;;10.83;100.00
23321;BME280;33376;51.306;4.752;2023-03-26T14:10:48;100410.16;;;10.77;100.00
23321;BME280;33376;51.306;4.752;2023-03-26T14:13:17;100418.19;;;10.76;100.00
23321;BME280;33376;51.306;4.752;2023-03-26T14:15:46;100410.63;;;10.84;100.00
23321;BME280;33376;51.306;4.752;2023-03-26T14:21:05;100400.41;;;10.78;100.00
23321;BME280;33376;51.306;4.752;2023-03-26T14:31:14;100386.47;;;10.74;100.00
23321;BME280;33376;51.306;4.752;2023-03-26T14:54:03;100391.13;;;9.69;100.00
23321;BME280;33376;51.306;4.752;2023-03-26T15:09:27;100411.72;;;10.09;100.00
23321;BME280;33376;51.306;4.752;2023-03-26T15:25:08;100505.47;;;10.05;100.00
23321;BME280;33376;51.306;4.752;2023-03-26T15:35:39;100577.97;;;9.89;100.00
23321;BME280;33376;51.306;4.752;2023-03-26T15:45:39;100619.03;;;9.96;100.00
23321;BME280;33376;51.306;4.752;2023-03-26T15:50:40;100653.13;;;9.86;100.00
23321;BME280;33376;51.306;4.752;2023-03-26T15:53:11;100666.28;;;9.88;100.00
23321;BME280;33376;51.306;4.752;2023-03-26T15:55:51;100665.72;;;9.98;100.00
23321;BME280;33376;51.306;4.752;2023-03-26T16:06:57;100719.28;;;10.03;100.00
23321;BME280;33376;51.306;4.752;2023-03-26T16:09:32;100727.44;;;9.83;100.00
23321;BME280;33376;51.306;4.752;2023-03-26T16:14:40;100764.03;;;9.92;100.00
23321;BME280;33376;51.306;4.752;2023-03-26T16:17:16;100782.31;;;9.97;100.00
23321;BME280;33376;51.306;4.752;2023-03-26T16:19:48;100789.56;;;9.93;100.00
23321;BME280;33376;51.306;4.752;2023-03-26T16:27:38;100832.75;;;10.28;100.00
23321;BME280;33376;51.306;4.752;2023-03-26T16:30:46;100841.53;;;9.79;100.00
23321;BME280;33376;51.306;4.752;2023-03-26T16:32:53;100848.84;;;9.91;100.00
23321;BME280;33376;51.306;4.752;2023-03-26T16:37:48;100876.56;;;10.01;100.00
23321;BME280;33376;51.306;4.752;2023-03-26T16:42:47;100894.41;;;9.63;100.00
23321;BME280;33376;51.306;4.752;2023-03-26T16:55:57;100956.81;;;9.50;100.00
23321;BME280;33376;51.306;4.752;2023-03-26T17:06:24;100979.72;;;9.33;100.00
23321;BME280;33376;51.306;4.752;2023-03-26T17:08:56;100981.66;;;9.29;100.00
23321;BME280;33376;51.306;4.752;2023-03-26T17:16:45;101012.19;;;9.36;100.00
23321;BME280;33376;51.306;4.752;2023-03-26T17:19:26;101020.47;;;9.10;100.00
23321;BME280;33376;51.306;4.752;2023-03-26T17:22:12;101028.06;;;9.18;100.00
23321;BME280;33376;51.306;4.752;2023-03-26T17:24:48;101049.34;;;9.15;100.00
23321;BME280;33376;51.306;4.752;2023-03-26T17:30:02;101077.69;;;9.13;100.00
23321;BME280;33376;51.306;4.752;2023-03-26T17:38:01;101132.88;;;9.00;100.00
23321;BME280;33376;51.306;4.752;2023-03-26T17:40:30;101149.56;;;8.82;100.00
23321;BME280;33376;51.306;4.752;2023-03-26T17:43:08;101149.81;;;8.96;100.00
23321;BME280;33376;51.306;4.752;2023-03-26T17:45:34;101164.50;;;8.83;100.00
23321;BME280;33376;51.306;4.752;2023-03-26T17:48:19;101167.06;;;8.84;100.00
23321;BME280;33376;51.306;4.752;2023-03-26T17:50:50;101172.56;;;8.80;100.00
23321;BME280;33376;51.306;4.752;2023-03-26T17:53:23;101186.41;;;8.65;100.00
23321;BME280;33376;51.306;4.752;2023-03-26T17:55:51;101185.00;;;8.56;100.00
23321;BME280;33376;51.306;4.752;2023-03-26T18:00:43;101192.19;;;8.53;100.00
23321;BME280;33376;51.306;4.752;2023-03-26T18:03:22;101195.78;;;8.52;100.00
23321;BME280;33376;51.306;4.752;2023-03-26T18:05:51;101203.63;;;8.53;100.00
23321;BME280;33376;51.306;4.752;2023-03-26T18:13:44;101236.69;;;8.42;100.00
23321;BME280;33376;51.306;4.752;2023-03-26T18:16:20;101246.13;;;8.26;100.00
23321;BME280;33376;51.306;4.752;2023-03-26T18:21:20;101243.63;;;8.23;100.00
23321;BME280;33376;51.306;4.752;2023-03-26T18:23:48;101232.34;;;8.18;100.00
23321;BME280;33376;51.306;4.752;2023-03-26T18:31:54;101260.75;;;8.11;100.00
23321;BME280;33376;51.306;4.752;2023-03-26T18:34:19;101259.63;;;8.18;100.00
23321;BME280;33376;51.306;4.752;2023-03-26T18:36:46;101251.75;;;8.17;100.00
23321;BME280;33376;51.306;4.752;2023-03-26T18:39:18;101268.38;;;8.19;100.00
23321;BME280;33376;51.306;4.752;2023-03-26T18:41:43;101270.19;;;8.18;100.00
23321;BME280;33376;51.306;4.752;2023-03-26T18:44:12;101266.03;;;8.11;100.00
23321;BME280;33376;51.306;4.752;2023-03-26T18:46:38;101262.25;;;8.18;100.00
23321;BME280;33376;51.306;4.752;2023-03-26T18:49:04;101260.44;;;8.19;100.00
23321;BME280;33376;51.306;4.752;2023-03-26T18:51:30;101255.94;;;7.99;100.00
23321;BME280;33376;51.306;4.752;2023-03-26T18:53:56;101267.66;;;7.92;100.00